createdAt,value
2017-07-31T00:02:05.266Z,17.30
2017-07-31T00:04:31.349Z,17.30
2017-07-31T00:06:58.153Z,17.30
2017-07-31T00:09:24.226Z,17.30
2017-07-31T00:11:50.517Z,17.40
2017-07-31T00:14:16.571Z,17.40
2017-07-31T00:16:42.694Z,17.40
2017-07-31T00:19:08.759Z,17.40
2017-07-31T00:21:34.849Z,17.40
2017-07-31T00:24:00.999Z,17.40
2017-07-31T00:26:27.051Z,17.30
2017-07-31T00:28:53.142Z,17.30
2017-07-31T00:31:19.182Z,17.40
2017-07-31T00:33:45.246Z,17.40
2017-07-31T00:36:11.290Z,17.50
2017-07-31T00:38:38.130Z,17.50
2017-07-31T00:41:04.259Z,17.60
2017-07-31T00:43:31.067Z,17.60
2017-07-31T00:45:57.118Z,17.60
2017-07-31T00:48:23.923Z,17.70
2017-07-31T00:50:49.990Z,17.70
2017-07-31T00:53:16.793Z,17.80
2017-07-31T00:55:42.840Z,17.80
2017-07-31T00:58:09.003Z,17.80
2017-07-31T01:00:35.054Z,17.80
2017-07-31T01:03:01.166Z,17.90
2017-07-31T01:05:27.238Z,17.90
2017-07-31T01:07:54.039Z,17.70
2017-07-31T01:10:20.146Z,17.70
2017-07-31T01:12:46.225Z,17.70
2017-07-31T01:15:12.299Z,17.60
2017-07-31T01:17:38.398Z,17.50
2017-07-31T01:20:04.467Z,17.50
2017-07-31T01:22:30.556Z,17.40
2017-07-31T01:24:56.623Z,17.30
2017-07-31T01:27:22.674Z,17.30
2017-07-31T01:29:48.762Z,17.20
2017-07-31T01:32:14.851Z,17.10
2017-07-31T01:34:40.914Z,17.10
2017-07-31T01:37:07.038Z,17.10
2017-07-31T01:39:33.118Z,17.20
2017-07-31T01:41:59.179Z,17.20
2017-07-31T01:44:25.254Z,17.20
2017-07-31T01:46:51.318Z,17.20
2017-07-31T01:49:17.398Z,17.10
2017-07-31T01:51:43.468Z,17.10
2017-07-31T01:54:09.563Z,17.10
2017-07-31T01:56:36.424Z,17.10
2017-07-31T01:59:02.543Z,17.10
2017-07-31T02:01:28.627Z,17.10
2017-07-31T02:03:54.694Z,17.10
2017-07-31T02:06:20.854Z,17.20
2017-07-31T02:08:46.924Z,17.20
2017-07-31T02:11:13.802Z,17.40
2017-07-31T02:13:39.859Z,17.40
2017-07-31T02:16:05.918Z,17.40
2017-07-31T02:18:32.718Z,17.50
2017-07-31T02:20:58.817Z,17.50
2017-07-31T02:23:24.922Z,17.40
2017-07-31T02:25:50.975Z,17.50
2017-07-31T02:28:17.675Z,17.50
2017-07-31T02:30:44.488Z,17.50
2017-07-31T02:33:10.538Z,17.50
2017-07-31T02:35:37.346Z,17.60
2017-07-31T02:38:03.423Z,17.60
2017-07-31T02:40:29.487Z,17.60
2017-07-31T02:42:56.556Z,17.70
2017-07-31T02:45:22.753Z,17.60
2017-07-31T02:47:48.801Z,17.60
2017-07-31T02:50:14.859Z,17.50
2017-07-31T02:52:40.929Z,17.50
2017-07-31T02:55:06.990Z,17.40
2017-07-31T02:57:33.161Z,17.30
2017-07-31T02:59:59.214Z,17.20
2017-07-31T03:02:25.273Z,17.20
2017-07-31T03:04:52.082Z,17.10
2017-07-31T03:07:18.150Z,17.10
2017-07-31T03:09:44.936Z,17.20
2017-07-31T03:12:11.015Z,17.10
2017-07-31T03:14:37.864Z,17.20
2017-07-31T03:17:03.914Z,17.20
2017-07-31T03:19:29.981Z,17.20
2017-07-31T03:21:56.026Z,17.20
2017-07-31T03:24:22.084Z,17.10
2017-07-31T03:26:48.213Z,17.10
2017-07-31T03:29:14.291Z,17.10
2017-07-31T03:31:40.338Z,17.00
2017-07-31T03:34:06.486Z,17.00
2017-07-31T03:36:32.546Z,17.10
2017-07-31T03:38:58.624Z,17.10
2017-07-31T03:41:24.738Z,17.10
2017-07-31T03:43:50.818Z,17.10
2017-07-31T03:46:16.890Z,17.10
2017-07-31T03:48:42.945Z,17.20
2017-07-31T03:51:08.991Z,17.30
2017-07-31T03:53:35.076Z,17.40
2017-07-31T03:56:01.122Z,17.40
2017-07-31T03:58:27.225Z,17.30
2017-07-31T04:00:53.356Z,17.20
2017-07-31T04:03:19.430Z,17.10
2017-07-31T04:05:45.587Z,16.90
2017-07-31T04:08:11.714Z,16.90
2017-07-31T04:10:37.795Z,17.00
2017-07-31T04:13:03.851Z,17.10
2017-07-31T04:15:30.823Z,17.20
2017-07-31T04:17:56.873Z,17.20
2017-07-31T04:20:23.076Z,17.30
2017-07-31T04:22:49.115Z,17.40
2017-07-31T04:25:15.325Z,17.50
2017-07-31T04:27:41.371Z,17.50
2017-07-31T04:30:07.574Z,17.60
2017-07-31T04:32:33.630Z,17.60
2017-07-31T04:34:59.837Z,17.70
2017-07-31T04:37:25.881Z,17.70
2017-07-31T04:39:51.954Z,17.80
2017-07-31T04:42:18.737Z,18.00
2017-07-31T04:44:44.786Z,18.00
2017-07-31T04:47:10.878Z,18.00
2017-07-31T04:49:36.976Z,18.10
2017-07-31T04:52:03.039Z,18.10
2017-07-31T04:54:29.089Z,18.20
2017-07-31T04:56:55.184Z,18.30
2017-07-31T04:59:21.279Z,18.40
2017-07-31T05:01:47.446Z,18.50
2017-07-31T05:04:13.506Z,18.60
2017-07-31T05:06:39.579Z,18.70
2017-07-31T05:09:05.641Z,18.70
2017-07-31T05:11:31.738Z,18.80
2017-07-31T05:13:57.861Z,19.00
2017-07-31T05:16:23.909Z,19.00
2017-07-31T05:18:49.988Z,19.10
2017-07-31T05:21:16.050Z,19.20
2017-07-31T05:23:42.130Z,19.20
2017-07-31T05:26:08.198Z,19.20
2017-07-31T05:28:34.266Z,19.20
2017-07-31T05:31:01.074Z,19.40
2017-07-31T05:33:27.153Z,19.30
2017-07-31T05:35:53.206Z,19.40
2017-07-31T05:38:19.281Z,19.50
2017-07-31T05:40:46.074Z,19.70
2017-07-31T05:43:12.202Z,19.70
2017-07-31T05:45:38.254Z,19.80
2017-07-31T05:48:04.333Z,19.90
2017-07-31T05:50:30.398Z,19.90
2017-07-31T05:52:56.458Z,19.90
2017-07-31T05:55:22.518Z,19.90
2017-07-31T05:57:48.582Z,19.80
2017-07-31T06:00:15.396Z,19.60
2017-07-31T06:02:41.486Z,19.60
2017-07-31T06:05:07.546Z,19.60
2017-07-31T06:07:33.619Z,19.50
2017-07-31T06:09:59.713Z,19.40
2017-07-31T06:12:25.794Z,19.40
2017-07-31T06:14:51.891Z,19.30
2017-07-31T06:17:17.967Z,19.40
2017-07-31T06:19:44.046Z,19.40
2017-07-31T06:22:10.133Z,19.50
2017-07-31T06:24:36.972Z,19.70
2017-07-31T06:27:03.034Z,19.70
2017-07-31T06:29:29.101Z,19.80
2017-07-31T06:31:55.175Z,19.90
2017-07-31T06:34:21.986Z,20.20
2017-07-31T06:36:48.051Z,20.20
2017-07-31T06:39:14.127Z,20.20
2017-07-31T06:41:40.201Z,20.40
2017-07-31T06:44:06.286Z,20.50
2017-07-31T06:46:32.345Z,20.60
2017-07-31T06:48:58.413Z,20.70
2017-07-31T06:51:24.453Z,20.80
2017-07-31T06:53:50.530Z,20.90
2017-07-31T06:56:16.574Z,21.00
2017-07-31T06:58:42.638Z,21.10
2017-07-31T07:01:08.694Z,21.20
2017-07-31T07:03:34.851Z,21.30
2017-07-31T07:06:00.937Z,21.40
2017-07-31T07:08:27.093Z,21.50
2017-07-31T07:10:53.138Z,21.50
2017-07-31T07:13:19.201Z,21.60
2017-07-31T07:15:45.259Z,21.70
2017-07-31T07:18:11.341Z,21.70
2017-07-31T07:20:37.402Z,21.80
2017-07-31T07:23:09.421Z,21.90
2017-07-31T07:25:35.486Z,21.90
2017-07-31T07:28:01.534Z,21.90
2017-07-31T07:30:27.613Z,22.10
2017-07-31T07:32:53.686Z,22.10
2017-07-31T07:35:19.774Z,22.20
2017-07-31T07:37:45.836Z,22.20
2017-07-31T07:40:11.923Z,22.30
2017-07-31T07:42:38.010Z,22.30
2017-07-31T07:45:04.054Z,22.40
2017-07-31T07:47:30.854Z,22.60
2017-07-31T07:49:56.936Z,22.60
2017-07-31T07:52:23.726Z,22.70
2017-07-31T07:54:49.802Z,22.70
2017-07-31T07:57:16.611Z,22.90
2017-07-31T07:59:42.693Z,22.90
2017-07-31T08:02:08.747Z,22.90
2017-07-31T08:04:34.820Z,22.90
2017-07-31T08:07:00.890Z,23.00
2017-07-31T08:09:26.969Z,23.10
2017-07-31T08:11:53.022Z,23.10
2017-07-31T08:14:19.107Z,23.20
2017-07-31T08:16:45.174Z,23.30
2017-07-31T08:19:11.245Z,23.40
2017-07-31T08:21:37.366Z,23.40
2017-07-31T08:24:03.450Z,23.50
2017-07-31T08:26:29.496Z,23.50
2017-07-31T08:28:55.546Z,23.60
2017-07-31T08:31:21.642Z,23.60
2017-07-31T08:33:47.726Z,23.70
2017-07-31T08:36:13.796Z,23.70
2017-07-31T08:38:39.867Z,23.80
2017-07-31T08:41:05.939Z,23.90
2017-07-31T08:43:32.003Z,24.00
2017-07-31T08:45:58.815Z,24.00
2017-07-31T08:48:24.885Z,24.00
2017-07-31T08:50:51.076Z,24.00
2017-07-31T08:53:17.930Z,24.20
2017-07-31T08:55:44.738Z,24.20
2017-07-31T08:58:10.960Z,24.20
2017-07-31T09:00:37.045Z,24.30
2017-07-31T09:03:03.131Z,24.30
2017-07-31T09:05:29.202Z,24.30
2017-07-31T09:07:55.274Z,24.50
2017-07-31T09:10:21.367Z,24.60
2017-07-31T09:12:47.454Z,24.60
2017-07-31T09:15:14.242Z,24.70
2017-07-31T09:17:40.317Z,24.70
2017-07-31T09:20:06.376Z,24.80
2017-07-31T09:22:32.450Z,24.70
2017-07-31T09:24:58.516Z,24.80
2017-07-31T09:27:24.578Z,24.90
2017-07-31T09:29:50.643Z,24.90
2017-07-31T09:32:17.462Z,25.00
2017-07-31T09:34:43.518Z,25.00
2017-07-31T09:37:09.897Z,24.80
2017-07-31T09:39:35.953Z,24.70
2017-07-31T09:42:02.063Z,24.90
2017-07-31T09:44:28.122Z,25.20
2017-07-31T09:46:54.935Z,25.40
2017-07-31T09:49:21.005Z,25.30
2017-07-31T09:51:47.054Z,25.60
2017-07-31T09:54:13.130Z,25.70
2017-07-31T09:56:39.239Z,25.80
2017-07-31T09:59:05.329Z,25.90
2017-07-31T10:01:31.387Z,25.90
2017-07-31T10:03:57.699Z,26.10
2017-07-31T10:06:23.774Z,26.10
2017-07-31T10:08:49.842Z,26.20
2017-07-31T10:11:15.890Z,26.50
2017-07-31T10:13:41.975Z,26.60
2017-07-31T10:16:08.076Z,26.70
2017-07-31T10:18:34.170Z,26.60
2017-07-31T10:21:00.243Z,26.40
2017-07-31T10:23:26.294Z,26.50
2017-07-31T10:25:52.359Z,26.60
2017-07-31T10:28:19.150Z,26.80
2017-07-31T10:30:45.214Z,26.70
2017-07-31T10:33:12.018Z,26.90
2017-07-31T10:35:38.095Z,26.80
2017-07-31T10:38:04.174Z,27.00
2017-07-31T10:40:30.269Z,27.30
2017-07-31T10:42:56.323Z,27.20
2017-07-31T10:45:22.398Z,27.20
2017-07-31T10:47:48.463Z,27.10
2017-07-31T10:50:14.603Z,27.20
2017-07-31T10:52:40.702Z,27.30
2017-07-31T10:55:06.790Z,27.50
2017-07-31T10:57:32.853Z,27.50
2017-07-31T10:59:58.893Z,27.70
2017-07-31T11:02:24.958Z,27.60
2017-07-31T11:04:51.770Z,27.60
2017-07-31T11:07:17.830Z,27.60
2017-07-31T11:09:44.658Z,27.70
2017-07-31T11:12:11.522Z,27.70
2017-07-31T11:14:37.570Z,27.70
2017-07-31T11:17:03.639Z,27.70
2017-07-31T11:19:29.714Z,27.50
2017-07-31T11:21:55.777Z,27.40
2017-07-31T11:24:22.077Z,27.30
2017-07-31T11:26:48.165Z,27.40
2017-07-31T11:29:14.963Z,27.60
2017-07-31T11:31:41.037Z,27.60
2017-07-31T11:34:07.825Z,28.00
2017-07-31T11:36:33.896Z,28.00
2017-07-31T11:38:59.942Z,27.80
2017-07-31T11:41:26.013Z,27.80
2017-07-31T11:43:52.078Z,27.90
2017-07-31T11:46:18.162Z,28.00
2017-07-31T11:48:44.218Z,28.00
2017-07-31T11:51:11.015Z,28.50
2017-07-31T11:53:37.827Z,28.50
2017-07-31T11:56:03.875Z,28.60
2017-07-31T11:58:30.167Z,28.60
2017-07-31T12:00:56.254Z,28.70
2017-07-31T12:03:22.327Z,28.70
2017-07-31T12:05:48.393Z,28.60
2017-07-31T12:08:14.462Z,28.60
2017-07-31T12:10:40.524Z,28.50
2017-07-31T12:13:06.589Z,28.20
2017-07-31T12:15:32.637Z,28.20
2017-07-31T12:17:58.728Z,28.30
2017-07-31T12:20:24.786Z,28.40
2017-07-31T12:22:50.874Z,28.60
2017-07-31T12:25:16.957Z,28.80
2017-07-31T12:27:43.046Z,28.70
2017-07-31T12:30:09.885Z,28.90
2017-07-31T12:32:35.930Z,29.00
2017-07-31T12:35:02.014Z,29.10
2017-07-31T12:37:28.067Z,29.30
2017-07-31T12:39:54.900Z,29.50
2017-07-31T12:42:21.690Z,29.30
2017-07-31T12:44:47.766Z,29.30
2017-07-31T12:47:14.551Z,30.10
2017-07-31T12:49:40.621Z,30.00
2017-07-31T12:52:06.666Z,31.50
2017-07-31T12:54:32.763Z,31.90
2017-07-31T12:56:58.828Z,31.20
2017-07-31T12:59:24.895Z,30.40
2017-07-31T13:01:51.017Z,30.00
2017-07-31T13:04:17.094Z,30.60
2017-07-31T13:06:43.171Z,31.00
2017-07-31T13:09:09.338Z,30.90
2017-07-31T13:11:36.174Z,29.70
2017-07-31T13:14:03.002Z,29.30
2017-07-31T13:16:29.058Z,29.30
2017-07-31T13:18:55.132Z,29.40
2017-07-31T13:21:21.198Z,30.30
2017-07-31T13:23:48.198Z,31.60
2017-07-31T13:26:14.279Z,31.60
2017-07-31T13:28:40.319Z,32.10
2017-07-31T13:31:06.394Z,32.20
2017-07-31T13:33:32.463Z,32.10
2017-07-31T13:35:58.522Z,31.70
2017-07-31T13:38:24.578Z,33.00
2017-07-31T13:40:50.641Z,34.40
2017-07-31T13:43:16.699Z,35.50
2017-07-31T13:45:42.763Z,36.00
2017-07-31T13:48:08.826Z,35.90
2017-07-31T13:50:34.894Z,35.30
2017-07-31T13:53:00.946Z,35.30
2017-07-31T13:55:27.015Z,35.70
2017-07-31T13:57:53.062Z,35.90
2017-07-31T14:00:19.139Z,35.40
2017-07-31T14:02:45.195Z,34.60
2017-07-31T14:05:11.269Z,33.50
2017-07-31T14:07:37.342Z,32.80
2017-07-31T14:10:03.423Z,33.30
2017-07-31T14:12:29.488Z,33.80
2017-07-31T14:14:55.554Z,33.10
2017-07-31T14:17:22.343Z,35.30
2017-07-31T14:19:48.413Z,35.20
2017-07-31T14:22:15.227Z,36.60
2017-07-31T14:24:41.307Z,36.60
2017-07-31T14:27:07.364Z,36.70
2017-07-31T14:29:33.846Z,36.70
2017-07-31T14:31:59.938Z,35.90
2017-07-31T14:34:26.027Z,34.90
2017-07-31T14:36:52.098Z,34.90
2017-07-31T14:39:18.146Z,33.70
2017-07-31T14:41:45.016Z,34.00
2017-07-31T14:44:11.114Z,33.90
2017-07-31T14:46:37.926Z,33.40
2017-07-31T14:49:03.967Z,33.40
2017-07-31T14:51:31.068Z,35.00
2017-07-31T14:53:57.177Z,35.00
2017-07-31T14:56:23.261Z,34.10
2017-07-31T14:58:49.415Z,33.30
2017-07-31T15:01:15.490Z,32.10
2017-07-31T15:03:41.556Z,31.50
2017-07-31T15:06:07.666Z,31.10
2017-07-31T15:08:34.562Z,31.00
2017-07-31T15:11:00.622Z,31.00
2017-07-31T15:13:26.786Z,31.20
2017-07-31T15:15:52.846Z,31.20
2017-07-31T15:18:18.887Z,31.80
2017-07-31T15:20:44.950Z,32.40
2017-07-31T15:23:11.045Z,32.60
2017-07-31T15:25:37.106Z,32.50
2017-07-31T15:28:03.165Z,33.20
2017-07-31T15:30:29.237Z,32.90
2017-07-31T15:32:56.031Z,31.80
2017-07-31T15:35:22.128Z,31.80
2017-07-31T15:37:48.177Z,31.20
2017-07-31T15:40:14.239Z,31.30
2017-07-31T15:42:40.400Z,32.20
2017-07-31T15:45:06.503Z,32.70
2017-07-31T15:47:33.307Z,33.30
2017-07-31T15:49:59.366Z,33.30
2017-07-31T15:52:26.154Z,33.50
2017-07-31T15:54:52.225Z,33.50
2017-07-31T15:57:19.031Z,34.30
2017-07-31T15:59:45.106Z,34.20
2017-07-31T16:02:11.898Z,34.90
2017-07-31T16:04:37.965Z,34.90
2017-07-31T16:07:04.770Z,33.10
2017-07-31T16:09:30.883Z,33.00
2017-07-31T16:11:56.938Z,32.80
2017-07-31T16:14:22.990Z,32.40
2017-07-31T16:16:49.803Z,31.30
2017-07-31T16:19:15.870Z,31.20
2017-07-31T16:21:41.919Z,30.70
2017-07-31T16:24:07.991Z,30.30
2017-07-31T16:26:34.794Z,29.70
2017-07-31T16:29:00.842Z,29.60
2017-07-31T16:31:26.922Z,29.50
2017-07-31T16:33:53.198Z,29.60
2017-07-31T16:36:19.270Z,30.10
2017-07-31T16:38:57.706Z,30.30
2017-07-31T16:41:45.813Z,31.00
2017-07-31T16:44:24.101Z,31.60
2017-07-31T16:46:50.159Z,32.10
2017-07-31T16:49:16.221Z,32.30
2017-07-31T16:51:42.270Z,32.80
2017-07-31T16:54:08.342Z,32.90
2017-07-31T16:56:34.395Z,33.50
2017-07-31T16:59:00.484Z,33.20
2017-07-31T17:01:26.546Z,33.30
2017-07-31T17:03:52.597Z,33.80
2017-07-31T17:06:18.676Z,33.40
2017-07-31T17:08:44.726Z,33.60
2017-07-31T17:11:10.806Z,33.70
2017-07-31T17:13:36.855Z,33.30
2017-07-31T17:16:02.942Z,33.00
2017-07-31T17:18:28.995Z,32.50
2017-07-31T17:20:55.071Z,31.60
2017-07-31T17:23:21.878Z,31.60
2017-07-31T17:25:47.954Z,31.60
2017-07-31T17:28:13.998Z,31.60
2017-07-31T17:30:40.077Z,31.20
2017-07-31T17:33:06.182Z,30.50
2017-07-31T17:35:32.250Z,29.70
2017-07-31T17:37:58.294Z,29.70
2017-07-31T17:40:24.346Z,29.30
2017-07-31T17:42:50.423Z,29.20
2017-07-31T17:45:16.482Z,28.80
2017-07-31T17:47:42.583Z,28.70
2017-07-31T17:50:08.634Z,28.20
2017-07-31T17:52:34.718Z,28.20
2017-07-31T17:55:00.763Z,28.10
2017-07-31T17:57:26.838Z,27.90
2017-07-31T17:59:52.894Z,27.50
2017-07-31T18:02:18.962Z,27.20
2017-07-31T18:04:45.011Z,27.10
2017-07-31T18:07:11.098Z,26.80
2017-07-31T18:09:37.146Z,26.70
2017-07-31T18:12:03.221Z,26.60
2017-07-31T18:14:29.279Z,26.50
2017-07-31T18:16:55.382Z,26.40
2017-07-31T18:19:21.430Z,26.30
2017-07-31T18:21:47.515Z,26.20
2017-07-31T18:24:13.575Z,26.10
2017-07-31T18:26:39.626Z,26.10
2017-07-31T18:29:05.698Z,26.00
2017-07-31T18:31:31.743Z,26.00
2017-07-31T18:33:57.830Z,25.80
2017-07-31T18:36:23.894Z,25.70
2017-07-31T18:38:49.961Z,25.60
2017-07-31T18:41:16.043Z,25.50
2017-07-31T18:43:42.118Z,25.40
2017-07-31T18:46:09.002Z,25.20
2017-07-31T18:48:35.146Z,25.20
2017-07-31T18:51:01.209Z,25.10
2017-07-31T18:53:28.057Z,24.80
2017-07-31T18:55:54.118Z,24.80
2017-07-31T18:58:20.202Z,24.60
2017-07-31T19:00:47.001Z,24.30
2017-07-31T19:03:13.059Z,24.30
2017-07-31T19:05:39.163Z,24.20
2017-07-31T19:08:05.230Z,24.00
2017-07-31T19:10:39.107Z,23.90
2017-07-31T19:13:05.226Z,23.90
2017-07-31T19:15:31.309Z,23.90
2017-07-31T19:17:57.474Z,23.90
2017-07-31T19:20:23.694Z,23.80
2017-07-31T19:22:49.790Z,23.80
2017-07-31T19:25:15.873Z,23.60
2017-07-31T19:27:41.926Z,23.60
2017-07-31T19:30:08.094Z,23.50
2017-07-31T19:32:34.216Z,23.40
2017-07-31T19:35:00.358Z,23.30
2017-07-31T19:37:26.439Z,23.20
2017-07-31T19:39:52.574Z,23.10
2017-07-31T19:43:41.013Z,22.80
2017-07-31T19:46:07.122Z,22.30
2017-07-31T19:48:33.942Z,21.90
2017-07-31T19:51:00.157Z,21.80
2017-07-31T19:53:26.266Z,21.70
2017-07-31T19:55:52.330Z,21.50
2017-07-31T19:58:18.547Z,21.30
2017-07-31T20:00:44.818Z,21.20
2017-07-31T20:03:10.895Z,21.10
2017-07-31T20:05:36.982Z,21.00
2017-07-31T20:08:03.166Z,20.90
2017-07-31T20:10:29.985Z,20.80
2017-07-31T20:12:56.079Z,20.80
2017-07-31T20:15:22.179Z,20.80
2017-07-31T20:17:48.296Z,20.80
2017-07-31T20:20:15.107Z,20.80
2017-07-31T20:22:42.223Z,20.70
2017-07-31T20:25:08.331Z,20.70
2017-07-31T20:27:34.422Z,20.70
2017-07-31T20:30:00.523Z,20.70
2017-07-31T20:32:26.638Z,20.60
2017-07-31T20:34:52.720Z,20.60
2017-07-31T20:37:18.868Z,20.40
2017-07-31T20:39:44.962Z,20.50
2017-07-31T20:42:11.755Z,20.40
2017-07-31T20:44:39.982Z,20.30
2017-07-31T20:47:06.034Z,20.30
2017-07-31T20:49:32.111Z,20.30
2017-07-31T20:51:58.159Z,20.20
2017-07-31T20:54:24.247Z,20.00
2017-07-31T20:56:50.315Z,19.80
2017-07-31T20:59:16.401Z,19.70
2017-07-31T21:01:42.463Z,19.60
2017-07-31T21:04:08.562Z,19.50
2017-07-31T21:06:35.470Z,19.30
2017-07-31T21:09:01.619Z,19.30
2017-07-31T21:11:27.693Z,19.20
2017-07-31T21:13:53.834Z,19.10
2017-07-31T21:16:19.922Z,19.00
2017-07-31T21:18:46.038Z,19.00
2017-07-31T21:21:12.111Z,19.00
2017-07-31T21:23:38.189Z,19.00
2017-07-31T21:26:04.255Z,18.90
2017-07-31T21:28:30.370Z,18.90
2017-07-31T21:30:56.454Z,18.90
2017-07-31T21:33:22.783Z,18.80
2017-07-31T21:35:48.942Z,18.80
2017-07-31T21:38:15.046Z,18.80
2017-07-31T21:40:41.166Z,18.80
2017-07-31T21:43:07.230Z,18.80
2017-07-31T21:45:34.164Z,18.70
2017-07-31T21:48:00.323Z,18.70
2017-07-31T21:50:26.456Z,18.60
2017-07-31T21:52:52.523Z,18.50
2017-07-31T21:55:18.663Z,18.50
2017-07-31T21:57:44.737Z,18.40
2017-07-31T22:00:10.823Z,18.30
2017-07-31T22:02:36.896Z,18.20
2017-07-31T22:05:03.098Z,18.20
2017-07-31T22:07:29.294Z,18.20
2017-07-31T22:09:56.170Z,18.10
2017-07-31T22:12:22.384Z,18.10
2017-07-31T22:14:48.471Z,18.10
2017-07-31T22:17:20.615Z,18.20
2017-07-31T22:19:46.810Z,18.20
2017-07-31T22:22:12.894Z,18.20
2017-07-31T22:24:39.075Z,18.20
2017-07-31T22:27:05.491Z,18.20
2017-07-31T22:29:31.695Z,18.10
2017-07-31T22:31:57.833Z,18.10
2017-07-31T22:34:23.897Z,18.00
2017-07-31T22:36:50.094Z,17.70
2017-07-31T22:39:16.308Z,17.80
2017-07-31T22:41:42.378Z,17.80
2017-07-31T22:44:08.560Z,17.80
2017-07-31T22:46:34.801Z,17.80
2017-07-31T22:49:04.715Z,17.90
2017-07-31T22:51:30.794Z,17.90
2017-07-31T22:53:57.602Z,18.00
2017-07-31T22:56:23.818Z,18.00
2017-07-31T22:58:50.018Z,18.00
2017-07-31T23:01:16.094Z,17.90
2017-07-31T23:03:42.164Z,17.90
2017-07-31T23:06:08.419Z,17.90
2017-07-31T23:08:34.628Z,18.00
2017-07-31T23:11:00.787Z,18.00
2017-07-31T23:13:26.980Z,18.00
2017-07-31T23:15:53.087Z,18.10
2017-07-31T23:18:19.154Z,18.10
2017-07-31T23:20:45.238Z,18.10
2017-07-31T23:23:12.250Z,17.90
2017-07-31T23:25:38.350Z,17.90
2017-07-31T23:28:04.457Z,17.90
2017-07-31T23:30:30.507Z,18.00
2017-07-31T23:32:56.586Z,18.00
2017-07-31T23:35:22.648Z,18.00
2017-07-31T23:37:48.875Z,18.00
2017-07-31T23:40:14.943Z,17.90
2017-07-31T23:42:41.220Z,18.00
2017-07-31T23:45:07.306Z,17.90
2017-07-31T23:47:33.398Z,17.80
2017-07-31T23:49:59.454Z,17.70
2017-07-31T23:52:25.633Z,17.80
2017-07-31T23:54:51.740Z,17.60
2017-07-31T23:57:17.796Z,17.60
2017-07-31T23:59:43.887Z,17.60
